Time;durP1;ratioP1;P1;durP2;ratioP2;P2;SDS_P1;SDS_P2;PMS_P1;PMS_P2;Temp;Humidity;BMP_temperature;BMP_pressure;BME280_temperature;BME280_humidity;BME280_pressure;Samples;Min_cycle;Max_cycle;Signal;HPM_P1;HPM_P2
2022/10/03 00:00:15;;;;;;;;;;;;;;;;;;5025896;28;19919;-56
2022/10/03 00:03:13;;;;;;;;;;;;;;;;;;5029809;28;20481;-56
2022/10/03 00:05:44;;;;;;;;;;;;;;;;;;5023095;28;20366;-57
2022/10/03 00:08:15;;;;;;;;;;;;;;;;;;5027076;28;19944;-56
2022/10/03 00:10:46;;;;;;;;;;;;;;;;;;5027189;28;19912;-56
2022/10/03 00:13:24;;;;;;;;;;;;;;;;;;5026155;28;20004;-57
2022/10/03 00:16:09;;;;;;;;;;;;;;;;;;5030007;28;19992;-56
2022/10/03 00:18:47;;;;;;;;;;;;;;;;;;5030787;28;19913;-56
2022/10/03 00:21:24;;;;;;;;;;;;;;;;;;5027058;28;20417;-56
2022/10/03 00:23:52;;;;;;;;;;;;;;;;;;5030434;28;19917;-57
2022/10/03 00:26:27;;;;;;;;;;;;;;;;;;5030354;28;19909;-56
2022/10/03 00:29:07;;;;;;;;;;;;;;;;;;5025731;28;19917;-56
2022/10/03 00:31:37;;;;;;;;;;;;;;;;;;5027575;28;19921;-56
2022/10/03 00:34:13;;;;;;;;;;;;;;;;;;5028758;28;19931;-56
2022/10/03 00:36:41;;;;;;;;;;;;;;;;;;5029750;28;19958;-57
2022/10/03 00:39:07;;;;;;;;;;;;;;;;;;5032337;28;19917;-56
2022/10/03 00:41:44;;;;;;;;;;;;;;;;;;5029269;28;19966;-56
2022/10/03 00:44:15;;;;;;;;;;;;;;;;;;5028295;28;20375;-56
2022/10/03 00:46:46;;;;;;;;;;;;;;;;;;5032789;28;19959;-56
2022/10/03 00:49:30;;;;;;;;;;;;;;;;;;5032613;28;20387;-56
2022/10/03 00:52:01;;;;;;;;;;;;;;;;;;5037154;28;20422;-56
2022/10/03 00:54:38;;;;;;;;;;;;;;;;;;5036127;28;19951;-56
2022/10/03 00:57:13;;;;;;;;;;;;;;;;;;5031920;28;19913;-56
2022/10/03 00:59:50;;;;;;;;;;;;;;;;;;5031453;28;19921;-56
2022/10/03 01:02:42;;;;;;;;;;;;;;;;;;5035541;28;20342;-56
2022/10/03 01:05:19;;;;;;;;;;;;;;;;;;5026779;28;20404;-55
2022/10/03 01:07:58;;;;;;;;;;;;;;;;;;5032631;28;19952;-56
2022/10/03 01:10:52;;;;;;;;;;;;;;;;;;5031423;28;20184;-56
2022/10/03 01:13:21;;;;;;;;;;;;;;;;;;5024880;28;19924;-56
2022/10/03 01:15:46;;;;;;;;;;;;;;;;;;5032844;28;19916;-56
2022/10/03 01:18:14;;;;;;;;;;;;;;;;;;5033891;28;19943;-56
2022/10/03 01:20:39;;;;;;;;;;;;;;;;;;5031097;28;19913;-56
2022/10/03 01:23:04;;;;;;;;;;;;;;;;;;5032485;28;20405;-56
2022/10/03 01:25:48;;;;;;;;;;;;;;;;;;5037944;28;20337;-56
2022/10/03 01:31:18;;;;;;;;;;;;;;;;;;5036271;28;19971;-58
2022/10/03 01:33:52;;;;;;;;;;;;;;;;;;5037977;28;19909;-58
2022/10/03 01:36:23;;;;;;;;;;;;;;;;;;5032564;28;20169;-56
2022/10/03 01:38:55;;;;;;;;;;;;;;;;;;5071320;28;19913;-57
2022/10/03 01:41:32;;;;;;;;;;;;;;;;;;5037484;28;19912;-57
2022/10/03 01:44:00;;;;;;;;;;;;;;;;;;5035821;28;19917;-57
2022/10/03 01:46:42;;;;;;;;;;;;;;;;;;5036186;28;20453;-56
2022/10/03 01:49:07;;;;;;;;;;;;;;;;;;5033550;28;19919;-56
2022/10/03 01:51:39;;;;;;;;;;;;;;;;;;5030466;28;19916;-57
2022/10/03 01:54:13;;;;;;;;;;;;;;;;;;5031174;28;19913;-57
2022/10/03 01:56:45;;;;;;;;;;;;;;;;;;5031566;28;19920;-57
2022/10/03 01:59:17;;;;;;;;;;;;;;;;;;5030116;28;20259;-57
2022/10/03 02:01:47;;;;;;;;;;;;;;;;;;5032548;28;19975;-57
2022/10/03 02:04:15;;;;;;;;;;;;;;;;;;5030264;28;19913;-57
2022/10/03 02:06:59;;;;;;;;;;;;;;;;;;5030892;28;19959;-57
2022/10/03 02:09:43;;;;;;;;;;;;;;;;;;5047106;28;19916;-57
2022/10/03 02:12:21;;;;;;;;;;;;;;;;;;5030857;28;19987;-57
2022/10/03 02:15:06;;;;;;;;;;;;;;;;;;5031489;28;19913;-57
2022/10/03 02:17:34;;;;;;;;;;;;;;;;;;5027428;28;19920;-57
2022/10/03 02:20:08;;;;;;;;;;;;;;;;;;5032831;28;19984;-57
2022/10/03 02:22:37;;;;;;;;;;;;;;;;;;5034347;28;19921;-57
2022/10/03 02:25:17;;;;;;;;;;;;;;;;;;5026567;28;19979;-57
2022/10/03 02:28:01;;;;;;;;;;;;;;;;;;5031259;28;19922;-56
2022/10/03 02:30:46;;;;;;;;;;;;;;;;;;5033372;28;19982;-57
2022/10/03 02:33:31;;;;;;;;;;;;;;;;;;5031955;28;19917;-57
2022/10/03 02:36:06;;;;;;;;;;;;;;;;;;5032842;28;19913;-57
2022/10/03 02:38:47;;;;;;;;;;;;;;;;;;5034033;28;19919;-56
2022/10/03 02:41:24;;;;;;;;;;;;;;;;;;5029335;28;19913;-57
2022/10/03 02:44:07;;;;;;;;;;;;;;;;;;5034019;28;20357;-57
2022/10/03 02:46:38;;;;;;;;;;;;;;;;;;5035221;28;19913;-57
2022/10/03 02:49:16;;;;;;;;;;;;;;;;;;5035769;28;19975;-57
2022/10/03 02:51:41;;;;;;;;;;;;;;;;;;5035355;28;19925;-57
2022/10/03 02:54:09;;;;;;;;;;;;;;;;;;5031509;28;20322;-57
2022/10/03 02:56:47;;;;;;;;;;;;;;;;;;5031678;28;20302;-57
2022/10/03 02:59:31;;;;;;;;;;;;;;;;;;5033874;28;19920;-57
2022/10/03 03:02:02;;;;;;;;;;;;;;;;;;5035121;28;19928;-56
2022/10/03 03:04:40;;;;;;;;;;;;;;;;;;5033800;28;19913;-57
2022/10/03 03:07:25;;;;;;;;;;;;;;;;;;5029108;28;19913;-57
2022/10/03 03:10:14;;;;;;;;;;;;;;;;;;5029162;28;20619;-57
2022/10/03 03:12:57;;;;;;;;;;;;;;;;;;5029079;28;19924;-57
2022/10/03 03:15:43;;;;;;;;;;;;;;;;;;5035895;28;19928;-57
2022/10/03 03:18:21;;;;;;;;;;;;;;;;;;5028242;28;19924;-57
2022/10/03 03:20:51;;;;;;;;;;;;;;;;;;5029584;28;20313;-57
2022/10/03 03:23:19;;;;;;;;;;;;;;;;;;5034826;28;19916;-57
2022/10/03 03:25:53;;;;;;;;;;;;;;;;;;5033408;28;20506;-57
2022/10/03 03:28:33;;;;;;;;;;;;;;;;;;5033383;28;19912;-57
2022/10/03 03:30:58;;;;;;;;;;;;;;;;;;5031926;28;19913;-57
2022/10/03 03:33:42;;;;;;;;;;;;;;;;;;5039246;28;19932;-57
2022/10/03 03:36:10;;;;;;;;;;;;;;;;;;5031990;28;19966;-57
2022/10/03 03:38:55;;;;;;;;;;;;;;;;;;5035391;28;19917;-57
2022/10/03 03:41:39;;;;;;;;;;;;;;;;;;5035805;28;19913;-57
2022/10/03 03:44:07;;;;;;;;;;;;;;;;;;5030038;28;19923;-57
2022/10/03 03:46:38;;;;;;;;;;;;;;;;;;5031805;28;20374;-57
2022/10/03 03:49:42;;;;;;;;;;;;;;;;;;5031584;28;19995;-57
2022/10/03 03:52:07;;;;;;;;;;;;;;;;;;5007495;28;20364;-56
2022/10/03 03:54:40;;;;;;;;;;;;;;;;;;5021127;28;19999;-58
2022/10/03 03:57:23;;;;;;;;;;;;;;;;;;5031902;28;20540;-57
2022/10/03 03:59:52;;;;;;;;;;;;;;;;;;5027921;28;19948;-56
2022/10/03 04:02:17;;;;;;;;;;;;;;;;;;5028447;28;19913;-57
2022/10/03 04:04:42;;;;;;;;;;;;;;;;;;5029286;28;19988;-56
2022/10/03 04:07:08;;;;;;;;;;;;;;;;;;5034388;28;19928;-57
2022/10/03 04:09:58;;;;;;;;;;;;;;;;;;5033992;28;20004;-56
2022/10/03 04:12:33;;;;;;;;;;;;;;;;;;5018123;28;20013;-57
2022/10/03 04:15:17;;;;;;;;;;;;;;;;;;5045082;28;19913;-56
2022/10/03 04:20:34;;;;;;;;;;;;;;;;;;5030409;28;19935;-57
2022/10/03 04:23:11;;;;;;;;;;;;;;;;;;5035363;28;19920;-58
2022/10/03 04:25:39;;;;;;;;;;;;;;;;;;5033217;28;19921;-57
2022/10/03 04:28:15;;;;;;;;;;;;;;;;;;5035975;28;19920;-58
2022/10/03 04:30:54;;;;;;;;;;;;;;;;;;5035100;28;19912;-58
2022/10/03 04:33:49;;;;;;;;;;;;;;;;;;5033764;28;19920;-58
2022/10/03 04:36:33;;;;;;;;;;;;;;;;;;5027574;28;19963;-57
2022/10/03 04:39:13;;;;;;;;;;;;;;;;;;5036241;28;19917;-57
2022/10/03 04:41:43;;;;;;;;;;;;;;;;;;5036342;28;20396;-56
2022/10/03 04:44:12;;;;;;;;;;;;;;;;;;5032324;28;19988;-58
2022/10/03 04:46:42;;;;;;;;;;;;;;;;;;5034085;28;20013;-58
2022/10/03 04:49:25;;;;;;;;;;;;;;;;;;5038185;28;19921;-58
2022/10/03 04:52:01;;;;;;;;;;;;;;;;;;5037632;28;20016;-58
2022/10/03 04:54:59;;;;;;;;;;;;;;;;;;5033263;28;19917;-58
2022/10/03 04:57:35;;;;;;;;;;;;;;;;;;5007342;28;19917;-58
2022/10/03 05:00:07;;;;;;;;;;;;;;;;;;5040244;28;19920;-58
2022/10/03 05:02:50;;;;;;;;;;;;;;;;;;5036052;28;19912;-59
2022/10/03 05:05:26;;;;;;;;;;;;;;;;;;5032166;28;20040;-61
2022/10/03 05:08:10;;;;;;;;;;;;;;;;;;5033192;28;19913;-61
2022/10/03 05:10:38;;;;;;;;;;;;;;;;;;5030819;28;19967;-60
2022/10/03 05:13:22;;;;;;;;;;;;;;;;;;5032354;28;19917;-61
2022/10/03 05:15:55;;;;;;;;;;;;;;;;;;5034125;28;19974;-61
2022/10/03 05:18:39;;;;;;;;;;;;;;;;;;5034630;28;20293;-61
2022/10/03 05:21:11;;;;;;;;;;;;;;;;;;5030260;28;19960;-61
2022/10/03 05:23:42;;;;;;;;;;;;;;;;;;5038328;28;20311;-61
2022/10/03 05:26:13;;;;;;;;;;;;;;;;;;5033564;28;19920;-61
2022/10/03 05:28:39;;;;;;;;;;;;;;;;;;5031360;28;19917;-61
2022/10/03 05:31:28;;;;;;;;;;;;;;;;;;5036117;28;20322;-61
2022/10/03 05:34:10;;;;;;;;;;;;;;;;;;5037661;28;20351;-61
2022/10/03 05:36:54;;;;;;;;;;;;;;;;;;5034525;28;19944;-61
2022/10/03 05:39:19;;;;;;;;;;;;;;;;;;5033012;28;19996;-61
2022/10/03 05:42:04;;;;;;;;;;;;;;;;;;5031598;28;20007;-61
2022/10/03 05:44:38;;;;;;;;;;;;;;;;;;5032105;28;20293;-61
2022/10/03 05:47:43;;;;;;;;;;;;;;;;;;5033153;28;19923;-61
2022/10/03 05:49:54;;;;;;;;;;;;;;;;;;5034998;28;19971;-61
2022/10/03 05:52:45;;;;;;;;;;;;;;;;;;5033618;28;19921;-61
2022/10/03 05:55:17;;;;;;;;;;;;;;;;;;5031501;28;19924;-61
2022/10/03 05:57:42;;;;;;;;;;;;;;;;;;5031147;28;19956;-61
2022/10/03 06:00:21;;;;;;;;;;;;;;;;;;5027432;28;19944;-61
2022/10/03 06:02:52;;;;;;;;;;;;;;;;;;5030616;28;19925;-61
2022/10/03 06:05:33;;;;;;;;;;;;;;;;;;5027624;28;19919;-62
2022/10/03 06:08:18;;;;;;;;;;;;;;;;;;5032578;28;19920;-61
2022/10/03 06:11:02;;;;;;;;;;;;;;;;;;5035764;28;19916;-61
2022/10/03 06:13:57;;;;;;;;;;;;;;;;;;5029565;28;19959;-61
2022/10/03 06:16:39;;;;;;;;;;;;;;;;;;5022491;28;20167;-61
2022/10/03 06:19:05;;;;;;;;;;;;;;;;;;5035762;28;20414;-61
2022/10/03 06:21:33;;;;;;;;;;;;;;;;;;5039383;28;19917;-60
2022/10/03 06:24:17;;;;;;;;;;;;;;;;;;5032859;28;20379;-61
2022/10/03 06:27:01;;;;;;;;;;;;;;;;;;5040320;28;19920;-61
2022/10/03 06:29:38;;;;;;;;;;;;;;;;;;5031212;28;19982;-61
2022/10/03 06:32:03;;;;;;;;;;;;;;;;;;5031557;28;19940;-61
2022/10/03 06:34:45;;;;;;;;;;;;;;;;;;5035695;28;20358;-61
2022/10/03 06:37:11;;;;;;;;;;;;;;;;;;5032197;28;19920;-60
2022/10/03 06:39:55;;;;;;;;;;;;;;;;;;5034332;28;19913;-61
2022/10/03 06:42:23;;;;;;;;;;;;;;;;;;5035523;28;19916;-61
2022/10/03 06:44:51;;;;;;;;;;;;;;;;;;5031568;28;19920;-61
2022/10/03 06:47:23;;;;;;;;;;;;;;;;;;5031734;28;19923;-61
2022/10/03 06:50:04;;;;;;;;;;;;;;;;;;5029950;28;19921;-61
2022/10/03 06:52:35;;;;;;;;;;;;;;;;;;5030208;28;19917;-61
2022/10/03 06:55:18;;;;;;;;;;;;;;;;;;5035164;28;19956;-61
2022/10/03 06:57:43;;;;;;;;;;;;;;;;;;5036057;28;19912;-60
2022/10/03 07:00:09;;;;;;;;;;;;;;;;;;5032774;28;20570;-60
2022/10/03 07:02:53;;;;;;;;;;;;;;;;;;5031733;28;19935;-60
2022/10/03 07:05:37;;;;;;;;;;;;;;;;;;5025706;28;19963;-60
2022/10/03 07:08:20;;;;;;;;;;;;;;;;;;5035456;28;20193;-60
2022/10/03 07:10:54;;;;;;;;;;;;;;;;;;5034424;28;19913;-60
2022/10/03 07:13:42;;;;;;;;;;;;;;;;;;5033190;28;20007;-57
2022/10/03 07:16:10;;;;;;;;;;;;;;;;;;5030381;28;19913;-60
2022/10/03 07:18:41;;;;;;;;;;;;;;;;;;5028635;28;19917;-60
2022/10/03 07:21:15;;;;;;;;;;;;;;;;;;5032237;28;19940;-60
2022/10/03 07:23:46;;;;;;;;;;;;;;;;;;5031855;28;19919;-60
2022/10/03 07:26:27;;;;;;;;;;;;;;;;;;5032220;28;19920;-60
2022/10/03 07:29:11;;;;;;;;;;;;;;;;;;5029706;28;19913;-60
2022/10/03 07:31:53;;;;;;;;;;;;;;;;;;5035105;28;20023;-60
2022/10/03 07:34:27;;;;;;;;;;;;;;;;;;5026259;28;19913;-61
2022/10/03 07:40:01;;;;;;;;;;;;;;;;;;5030364;28;19967;-61
2022/10/03 07:42:46;;;;;;;;;;;;;;;;;;5032054;28;20412;-61
2022/10/03 07:45:25;;;;;;;;;;;;;;;;;;5031304;28;20199;-60
2022/10/03 07:47:50;;;;;;;;;;;;;;;;;;5046642;28;20414;-62
2022/10/03 07:50:31;;;;;;;;;;;;;;;;;;5044394;28;21963;-62
2022/10/03 07:53:15;;;;;;;;;;;;;;;;;;5030927;28;19924;-62
2022/10/03 07:55:46;;;;;;;;;;;;;;;;;;5041449;28;20007;-62
2022/10/03 07:58:25;;;;;;;;;;;;;;;;;;5037438;28;19947;-62
2022/10/03 08:00:50;;;;;;;;;;;;;;;;;;5036477;28;19995;-62
2022/10/03 08:03:15;;;;;;;;;;;;;;;;;;5031915;28;20398;-62
2022/10/03 08:05:41;;;;;;;;;;;;;;;;;;5035608;28;20492;-62
2022/10/03 08:08:23;;;;;;;;;;;;;;;;;;5037426;28;19917;-62
2022/10/03 08:10:59;;;;;;;;;;;;;;;;;;5039237;28;19920;-61
2022/10/03 08:13:42;;;;;;;;;;;;;;;;;;5035191;28;19968;-61
2022/10/03 08:16:22;;;;;;;;;;;;;;;;;;5030641;28;19913;-61
2022/10/03 08:18:50;;;;;;;;;;;;;;;;;;5035375;28;19970;-60
2022/10/03 08:21:19;;;;;;;;;;;;;;;;;;5033632;28;19948;-60
2022/10/03 08:24:03;;;;;;;;;;;;;;;;;;5033521;28;19913;-61
2022/10/03 08:26:38;;;;;;;;;;;;;;;;;;5035865;28;19951;-60
2022/10/03 08:29:15;;;;;;;;;;;;;;;;;;5023484;28;20420;-60
2022/10/03 08:31:41;;;;;;;;;;;;;;;;;;5029331;28;19976;-59
2022/10/03 08:34:25;;;;;;;;;;;;;;;;;;5034389;28;20386;-60
2022/10/03 08:37:00;;;;;;;;;;;;;;;;;;5033476;28;19919;-60
2022/10/03 08:39:31;;;;;;;;;;;;;;;;;;5035085;28;20066;-60
2022/10/03 08:42:15;;;;;;;;;;;;;;;;;;5038586;28;19999;-60
2022/10/03 08:44:49;;;;;;;;;;;;;;;;;;5034672;28;19919;-60
2022/10/03 08:47:14;;;;;;;;;;;;;;;;;;5034840;28;19913;-60
2022/10/03 08:49:58;;;;;;;;;;;;;;;;;;5033892;28;19921;-60
2022/10/03 08:52:23;;;;;;;;;;;;;;;;;;5028008;28;19924;-60
2022/10/03 08:54:54;;;;;;;;;;;;;;;;;;5041185;28;19917;-60
2022/10/03 08:57:40;;;;;;;;;;;;;;;;;;5031912;28;20015;-60
2022/10/03 09:00:08;;;;;;;;;;;;;;;;;;5027912;28;19991;-60
2022/10/03 09:02:42;;;;;;;;;;;;;;;;;;5030059;28;19913;-59
2022/10/03 09:05:24;;;;;;;;;;;;;;;;;;5033957;28;19913;-59
2022/10/03 09:08:08;;;;;;;;;;;;;;;;;;5032765;28;19913;-59
2022/10/03 09:10:36;;;;;;;;;;;;;;;;;;5032089;28;19920;-59
2022/10/03 09:13:02;;;;;;;;;;;;;;;;;;5036872;28;19917;-60
2022/10/03 09:15:27;;;;;;;;;;;;;;;;;;5032321;28;20263;-60
2022/10/03 09:18:04;;;;;;;;;;;;;;;;;;5033714;28;20290;-60
2022/10/03 09:20:35;;;;;;;;;;;;;;;;;;5034561;28;19913;-59
2022/10/03 09:23:09;;;;;;;;;;;;;;;;;;5027917;28;20367;-60
2022/10/03 09:25:35;;;;;;;;;;;;;;;;;;5035121;28;20054;-59
2022/10/03 09:28:19;;;;;;;;;;;;;;;;;;5035780;28;20003;-60
2022/10/03 09:31:03;;;;;;;;;;;;;;;;;;5031655;28;19920;-59
2022/10/03 09:33:48;;;;;;;;;;;;;;;;;;5032259;28;19917;-60
2022/10/03 09:36:13;;;;;;;;;;;;;;;;;;5035416;28;20337;-60
2022/10/03 09:38:38;;;;;;;;;;;;;;;;;;5037041;28;19913;-59
2022/10/03 09:41:22;;;;;;;;;;;;;;;;;;5032617;28;20382;-60
2022/10/03 09:44:02;;;;;;;;;;;;;;;;;;5034136;28;20398;-60
2022/10/03 09:46:33;;;;;;;;;;;;;;;;;;5033917;28;19970;-60
2022/10/03 09:49:04;;;;;;;;;;;;;;;;;;5033328;28;19913;-60
2022/10/03 09:51:30;;;;;;;;;;;;;;;;;;5034985;28;19955;-59
2022/10/03 09:53:55;;;;;;;;;;;;;;;;;;5033231;28;19952;-60
2022/10/03 09:56:39;;;;;;;;;;;;;;;;;;5031568;28;19913;-60
2022/10/03 09:59:13;;;;;;;;;;;;;;;;;;5029573;28;19912;-60
2022/10/03 10:01:41;;;;;;;;;;;;;;;;;;5027190;28;20408;-60
2022/10/03 10:04:25;;;;;;;;;;;;;;;;;;5031747;28;19962;-60
2022/10/03 10:07:09;;;;;;;;;;;;;;;;;;5032684;28;20038;-60
2022/10/03 10:09:53;;;;;;;;;;;;;;;;;;5030264;28;19913;-60
2022/10/03 10:12:24;;;;;;;;;;;;;;;;;;5027374;28;19923;-60
2022/10/03 10:14:52;;;;;;;;;;;;;;;;;;5031437;28;19920;-60
2022/10/03 10:17:35;;;;;;;;;;;;;;;;;;5028128;28;19940;-60
2022/10/03 10:20:25;;;;;;;;;;;;;;;;;;5028470;28;19913;-59
2022/10/03 10:22:50;;;;;;;;;;;;;;;;;;5027278;28;19913;-60
2022/10/03 10:25:31;;;;;;;;;;;;;;;;;;5031148;28;21124;-60
2022/10/03 10:28:15;;;;;;;;;;;;;;;;;;5030527;28;19948;-60
2022/10/03 10:30:59;;;;;;;;;;;;;;;;;;5045238;28;20333;-60
2022/10/03 10:33:43;;;;;;;;;;;;;;;;;;5027758;28;19921;-60
2022/10/03 10:36:20;;;;;;;;;;;;;;;;;;5028232;28;19932;-60
2022/10/03 10:39:12;;;;;;;;;;;;;;;;;;5028078;28;20012;-60
2022/10/03 10:41:41;;;;;;;;;;;;;;;;;;5028053;28;19920;-60
2022/10/03 10:44:09;;;;;;;;;;;;;;;;;;5029344;28;19956;-60
2022/10/03 10:46:34;;;;;;;;;;;;;;;;;;5030352;28;20379;-60
2022/10/03 10:49:18;;;;;;;;;;;;;;;;;;5029227;28;19913;-60
2022/10/03 10:52:20;;;;;;;;;;;;;;;;;;5029017;28;19917;-60
2022/10/03 10:54:45;;;;;;;;;;;;;;;;;;4964817;28;20384;-61
2022/10/03 10:57:33;;;;;;;;;;;;;;;;;;5015300;28;19996;-61
2022/10/03 10:59:59;;;;;;;;;;;;;;;;;;5022832;28;19913;-61
2022/10/03 11:02:43;;;;;;;;;;;;;;;;;;5029874;28;19923;-60
2022/10/03 11:05:28;;;;;;;;;;;;;;;;;;5030250;28;19922;-60
2022/10/03 11:08:03;;;;;;;;;;;;;;;;;;5030695;28;20299;-61
2022/10/03 11:10:40;;;;;;;;;;;;;;;;;;5031662;28;19912;-60
2022/10/03 11:13:20;;;;;;;;;;;;;;;;;;5030205;28;19952;-60
2022/10/03 11:16:06;;;;;;;;;;;;;;;;;;5031605;28;19912;-60
2022/10/03 11:18:50;;;;;;;;;;;;;;;;;;5029404;28;20350;-60
2022/10/03 11:21:51;;;;;;;;;;;;;;;;;;5030946;28;19913;-60
2022/10/03 11:24:35;;;;;;;;;;;;;;;;;;4987438;28;19913;-60
2022/10/03 11:27:20;;;;;;;;;;;;;;;;;;5023364;28;20272;-61
2022/10/03 11:29:49;;;;;;;;;;;;;;;;;;5020573;28;19913;-60
2022/10/03 11:32:30;;;;;;;;;;;;;;;;;;5032036;28;19920;-60
2022/10/03 11:35:13;;;;;;;;;;;;;;;;;;5029131;28;19913;-60
2022/10/03 11:37:41;;;;;;;;;;;;;;;;;;5032487;28;20031;-60
2022/10/03 11:40:09;;;;;;;;;;;;;;;;;;5032816;28;19978;-60
2022/10/03 11:42:50;;;;;;;;;;;;;;;;;;5031243;28;19964;-60
2022/10/03 11:45:18;;;;;;;;;;;;;;;;;;5033486;28;19913;-61
2022/10/03 11:47:46;;;;;;;;;;;;;;;;;;5050764;28;20298;-60
2022/10/03 11:50:33;;;;;;;;;;;;;;;;;;5028721;28;20347;-60
2022/10/03 11:53:15;;;;;;;;;;;;;;;;;;5030695;28;20015;-60
2022/10/03 11:55:47;;;;;;;;;;;;;;;;;;5028196;28;19921;-60
2022/10/03 11:58:31;;;;;;;;;;;;;;;;;;5029843;28;19956;-61
2022/10/03 12:00:59;;;;;;;;;;;;;;;;;;5026489;28;20593;-61
2022/10/03 12:03:28;;;;;;;;;;;;;;;;;;5026591;28;20007;-61
2022/10/03 12:08:53;;;;;;;;;;;;;;;;;;5030327;28;19928;-61
2022/10/03 12:08:56;;;;;;;;;;;;;;;;;;5030022;28;19912;-61
2022/10/03 12:11:22;;;;;;;;;;;;;;;;;;5029319;28;19998;-59
2022/10/03 12:13:48;;;;;;;;;;;;;;;;;;5033075;28;19916;-60
2022/10/03 12:16:26;;;;;;;;;;;;;;;;;;5033186;28;19919;-60
2022/10/03 12:18:54;;;;;;;;;;;;;;;;;;5032850;28;20333;-60
2022/10/03 12:21:30;;;;;;;;;;;;;;;;;;5029308;28;19913;-60
2022/10/03 12:24:07;;;;;;;;;;;;;;;;;;5032229;28;19933;-60
2022/10/03 12:26:32;;;;;;;;;;;;;;;;;;5033019;28;19912;-60
2022/10/03 12:28:58;;;;;;;;;;;;;;;;;;5029657;28;20390;-60
2022/10/03 12:31:28;;;;;;;;;;;;;;;;;;5030036;28;20271;-60
2022/10/03 12:33:53;;;;;;;;;;;;;;;;;;5030974;28;19913;-60
2022/10/03 12:36:38;;;;;;;;;;;;;;;;;;5029493;28;19919;-59
2022/10/03 12:39:10;;;;;;;;;;;;;;;;;;5028980;28;19920;-61
2022/10/03 12:41:35;;;;;;;;;;;;;;;;;;5030534;28;19936;-56
2022/10/03 12:44:20;;;;;;;;;;;;;;;;;;5030382;28;19964;-57
2022/10/03 12:46:59;;;;;;;;;;;;;;;;;;5035015;28;19920;-57
2022/10/03 12:49:36;;;;;;;;;;;;;;;;;;5032300;28;19952;-55
2022/10/03 12:52:08;;;;;;;;;;;;;;;;;;5030299;28;19917;-55
2022/10/03 12:54:42;;;;;;;;;;;;;;;;;;5032185;28;20580;-54
2022/10/03 12:57:07;;;;;;;;;;;;;;;;;;5027286;28;20298;-55
2022/10/03 12:59:44;;;;;;;;;;;;;;;;;;5031430;28;19920;-54
2022/10/03 13:02:13;;;;;;;;;;;;;;;;;;5030065;28;19916;-56
2022/10/03 13:04:41;;;;;;;;;;;;;;;;;;5032320;28;20399;-55
2022/10/03 13:07:12;;;;;;;;;;;;;;;;;;5032668;28;19920;-56
2022/10/03 13:09:46;;;;;;;;;;;;;;;;;;5037614;28;20361;-56
2022/10/03 13:12:23;;;;;;;;;;;;;;;;;;5030636;28;20378;-56
2022/10/03 13:15:07;;;;;;;;;;;;;;;;;;5032039;28;20413;-55
2022/10/03 13:17:35;;;;;;;;;;;;;;;;;;5033480;28;20420;-56
2022/10/03 13:20:09;;;;;;;;;;;;;;;;;;5035757;28;19913;-56
2022/10/03 13:22:42;;;;;;;;;;;;;;;;;;5030596;28;19939;-55
2022/10/03 13:25:14;;;;;;;;;;;;;;;;;;5034848;28;19917;-55
2022/10/03 13:27:42;;;;;;;;;;;;;;;;;;5029639;28;19919;-56
2022/10/03 13:30:24;;;;;;;;;;;;;;;;;;5032167;28;20449;-54
2022/10/03 13:33:01;;;;;;;;;;;;;;;;;;5031420;28;19950;-55
2022/10/03 13:38:17;;;;;;;;;;;;;;;;;;5029968;28;19924;-57
2022/10/03 13:40:50;;;;;;;;;;;;;;;;;;5033100;28;20291;-55
2022/10/03 13:43:20;;;;;;;;;;;;;;;;;;5029371;28;19995;-56
2022/10/03 13:45:47;;;;;;;;;;;;;;;;;;5031681;28;20493;-56
2022/10/03 13:48:17;;;;;;;;;;;;;;;;;;5035693;28;20370;-56
2022/10/03 13:51:04;;;;;;;;;;;;;;;;;;5030474;28;19921;-55
2022/10/03 13:53:48;;;;;;;;;;;;;;;;;;5026048;28;20015;-57
2022/10/03 13:56:36;;;;;;;;;;;;;;;;;;5028423;28;20008;-56
2022/10/03 13:59:20;;;;;;;;;;;;;;;;;;5006747;28;20385;-55
2022/10/03 14:01:51;;;;;;;;;;;;;;;;;;5030688;28;20369;-56
2022/10/03 14:04:35;;;;;;;;;;;;;;;;;;5034087;28;19923;-55
2022/10/03 14:07:14;;;;;;;;;;;;;;;;;;5030585;28;19920;-56
2022/10/03 14:09:51;;;;;;;;;;;;;;;;;;5032154;28;20459;-56
2022/10/03 14:12:28;;;;;;;;;;;;;;;;;;5031403;28;19925;-55
2022/10/03 14:15:03;;;;;;;;;;;;;;;;;;5033427;28;19921;-55
2022/10/03 14:17:28;;;;;;;;;;;;;;;;;;5033345;28;20005;-54
2022/10/03 14:20:05;;;;;;;;;;;;;;;;;;5031994;28;20107;-55
2022/10/03 14:22:33;;;;;;;;;;;;;;;;;;5031935;28;20335;-55
2022/10/03 14:25:04;;;;;;;;;;;;;;;;;;5034301;28;19919;-53
2022/10/03 14:27:41;;;;;;;;;;;;;;;;;;5032728;28;19913;-56
2022/10/03 14:30:12;;;;;;;;;;;;;;;;;;5030137;28;20401;-55
2022/10/03 14:32:48;;;;;;;;;;;;;;;;;;5030359;28;19928;-56
2022/10/03 14:35:20;;;;;;;;;;;;;;;;;;5033549;28;20282;-55
2022/10/03 14:37:57;;;;;;;;;;;;;;;;;;5032078;28;19959;-56
2022/10/03 14:40:32;;;;;;;;;;;;;;;;;;5028573;28;20298;-56
2022/10/03 14:42:57;;;;;;;;;;;;;;;;;;5032419;28;19921;-55
2022/10/03 14:45:25;;;;;;;;;;;;;;;;;;5030579;28;19977;-55
2022/10/03 14:47:53;;;;;;;;;;;;;;;;;;5036009;28;20028;-59
2022/10/03 14:50:21;;;;;;;;;;;;;;;;;;5033549;28;19917;-59
2022/10/03 14:53:01;;;;;;;;;;;;;;;;;;5029777;28;19920;-59
2022/10/03 14:55:31;;;;;;;;;;;;;;;;;;5029882;28;20444;-60
2022/10/03 14:58:01;;;;;;;;;;;;;;;;;;5028783;28;19913;-59
2022/10/03 15:00:26;;;;;;;;;;;;;;;;;;5030847;28;19975;-60
2022/10/03 15:02:51;;;;;;;;;;;;;;;;;;5030017;28;19913;-60
2022/10/03 15:05:30;;;;;;;;;;;;;;;;;;5028051;28;19960;-59
2022/10/03 15:07:56;;;;;;;;;;;;;;;;;;5029182;28;20287;-59
2022/10/03 15:10:24;;;;;;;;;;;;;;;;;;5032111;28;19920;-60
2022/10/03 15:12:51;;;;;;;;;;;;;;;;;;5030746;28;19921;-60
2022/10/03 15:15:23;;;;;;;;;;;;;;;;;;5029574;28;19968;-60
2022/10/03 15:17:52;;;;;;;;;;;;;;;;;;5031926;28;20003;-59
2022/10/03 15:20:25;;;;;;;;;;;;;;;;;;5031220;28;19925;-60
2022/10/03 15:22:52;;;;;;;;;;;;;;;;;;5027624;28;19921;-59
2022/10/03 15:25:19;;;;;;;;;;;;;;;;;;5057005;28;19920;-59
2022/10/03 15:27:50;;;;;;;;;;;;;;;;;;5033494;28;19943;-59
2022/10/03 15:30:18;;;;;;;;;;;;;;;;;;5032319;28;19913;-59
2022/10/03 15:32:47;;;;;;;;;;;;;;;;;;5027658;28;20281;-56
2022/10/03 15:35:31;;;;;;;;;;;;;;;;;;5030790;28;19935;-56
2022/10/03 15:38:26;;;;;;;;;;;;;;;;;;5035223;28;19916;-60
2022/10/03 15:40:51;;;;;;;;;;;;;;;;;;5026041;28;20382;-60
2022/10/03 15:43:16;;;;;;;;;;;;;;;;;;5031254;28;19924;-60
2022/10/03 15:45:42;;;;;;;;;;;;;;;;;;5031382;28;20386;-60
2022/10/03 15:48:14;;;;;;;;;;;;;;;;;;5025651;28;20010;-59
2022/10/03 15:50:42;;;;;;;;;;;;;;;;;;5028526;28;20413;-59
2022/10/03 15:53:21;;;;;;;;;;;;;;;;;;5027847;28;19925;-59
2022/10/03 15:55:49;;;;;;;;;;;;;;;;;;5029270;28;19921;-59
2022/10/03 15:58:14;;;;;;;;;;;;;;;;;;5027059;28;20426;-59
2022/10/03 16:00:40;;;;;;;;;;;;;;;;;;5028989;28;20035;-59
2022/10/03 16:03:16;;;;;;;;;;;;;;;;;;5028524;28;19959;-59
2022/10/03 16:05:55;;;;;;;;;;;;;;;;;;5027454;28;19917;-59
2022/10/03 16:08:21;;;;;;;;;;;;;;;;;;5029934;28;20188;-59
2022/10/03 16:11:00;;;;;;;;;;;;;;;;;;5030429;28;19959;-59
2022/10/03 16:13:43;;;;;;;;;;;;;;;;;;5027599;28;20297;-59
2022/10/03 16:16:36;;;;;;;;;;;;;;;;;;5029740;28;19913;-59
2022/10/03 16:19:19;;;;;;;;;;;;;;;;;;4999497;28;20384;-59
2022/10/03 16:22:03;;;;;;;;;;;;;;;;;;5035806;28;20298;-59
2022/10/03 16:24:55;;;;;;;;;;;;;;;;;;5038688;28;19920;-59
2022/10/03 16:27:25;;;;;;;;;;;;;;;;;;5022127;28;20367;-59
2022/10/03 16:30:06;;;;;;;;;;;;;;;;;;5035363;28;19921;-60
2022/10/03 16:32:33;;;;;;;;;;;;;;;;;;5036555;28;19971;-59
2022/10/03 16:35:00;;;;;;;;;;;;;;;;;;5038551;28;20366;-59
2022/10/03 16:37:26;;;;;;;;;;;;;;;;;;5037087;28;19963;-59
2022/10/03 16:40:15;;;;;;;;;;;;;;;;;;5038489;28;20395;-59
2022/10/03 16:42:44;;;;;;;;;;;;;;;;;;5030189;28;19967;-57
2022/10/03 16:45:18;;;;;;;;;;;;;;;;;;5032624;28;19997;-57
2022/10/03 16:47:44;;;;;;;;;;;;;;;;;;5031953;28;19974;-57
2022/10/03 16:50:26;;;;;;;;;;;;;;;;;;5028145;28;20217;-59
2022/10/03 16:52:52;;;;;;;;;;;;;;;;;;5034059;28;19944;-59
2022/10/03 16:55:27;;;;;;;;;;;;;;;;;;5032080;28;19928;-58
2022/10/03 16:57:57;;;;;;;;;;;;;;;;;;5033853;28;20323;-59
2022/10/03 17:00:25;;;;;;;;;;;;;;;;;;5029559;28;19920;-58
2022/10/03 17:02:51;;;;;;;;;;;;;;;;;;5032734;28;19943;-58
2022/10/03 17:05:17;;;;;;;;;;;;;;;;;;5030449;28;20010;-58
2022/10/03 17:08:09;;;;;;;;;;;;;;;;;;5032426;28;19919;-58
2022/10/03 17:10:36;;;;;;;;;;;;;;;;;;5042512;28;19916;-58
2022/10/03 17:13:14;;;;;;;;;;;;;;;;;;5027801;28;19963;-60
2022/10/03 17:15:51;;;;;;;;;;;;;;;;;;5029042;28;19964;-59
2022/10/03 17:18:48;;;;;;;;;;;;;;;;;;5028383;28;19921;-59
2022/10/03 17:21:25;;;;;;;;;;;;;;;;;;5020928;28;19920;-59
2022/10/03 17:23:59;;;;;;;;;;;;;;;;;;5030425;28;20354;-59
2022/10/03 17:26:32;;;;;;;;;;;;;;;;;;5030403;28;19909;-59
2022/10/03 17:29:16;;;;;;;;;;;;;;;;;;5026686;28;19921;-59
2022/10/03 17:31:53;;;;;;;;;;;;;;;;;;5028909;28;19932;-60
2022/10/03 17:34:27;;;;;;;;;;;;;;;;;;5030386;28;20215;-60
2022/10/03 17:37:11;;;;;;;;;;;;;;;;;;5029730;28;19913;-59
2022/10/03 17:39:57;;;;;;;;;;;;;;;;;;5028716;28;20294;-59
2022/10/03 17:42:34;;;;;;;;;;;;;;;;;;5025483;28;19936;-59
2022/10/03 17:45:15;;;;;;;;;;;;;;;;;;5029973;28;19913;-59
2022/10/03 17:47:40;;;;;;;;;;;;;;;;;;5030192;28;19936;-59
2022/10/03 17:50:14;;;;;;;;;;;;;;;;;;5028825;28;19909;-59
2022/10/03 17:52:41;;;;;;;;;;;;;;;;;;5027440;28;19942;-59